Time;durP1;ratioP1;P1;durP2;ratioP2;P2;SDS_P1;SDS_P2;PMS_P1;PMS_P2;Temp;Humidity;BMP_temperature;BMP_pressure;BME280_temperature;BME280_humidity;BME280_pressure;Samples;Min_cycle;Max_cycle;Signal;HPM_P1;HPM_P2
2023/08/19 00:00:16;;;;;;;13.73;12.38;;;;;;;21.45;73.60;100692.44;5094487;28;20082;-61
2023/08/19 00:02:43;;;;;;;15.68;12.90;;;;;;;21.43;73.60;100708.97;5094373;28;20048;-61
2023/08/19 00:05:10;;;;;;;15.93;12.40;;;;;;;21.42;73.61;100706.41;5095221;28;20534;-62
2023/08/19 00:07:36;;;;;;;13.38;12.02;;;;;;;21.40;73.55;100703.00;5094520;28;20016;-61
2023/08/19 00:10:03;;;;;;;13.32;11.52;;;;;;;21.25;73.14;100659.28;5080345;28;20450;-61
2023/08/19 00:12:30;;;;;;;15.13;13.07;;;;;;;21.40;73.31;100698.44;5094177;28;20223;-62
2023/08/19 00:14:56;;;;;;;15.82;12.35;;;;;;;21.48;73.18;100695.66;5094920;28;20043;-62
2023/08/19 00:17:22;;;;;;;15.10;12.98;;;;;;;21.43;73.57;100686.31;5094206;28;20035;-61
2023/08/19 00:19:48;;;;;;;14.30;12.70;;;;;;;21.42;73.70;100690.06;5093787;28;20327;-62
2023/08/19 00:22:13;;;;;;;16.55;12.85;;;;;;;21.45;73.51;100686.97;5094063;28;20086;-62
2023/08/19 00:24:39;;;;;;;17.42;12.30;;;;;;;21.52;72.34;100683.38;5094789;28;20335;-61
2023/08/19 00:27:04;;;;;;;13.82;12.35;;;;;;;21.51;72.15;100678.13;5094027;28;20043;-61
2023/08/19 00:29:30;;;;;;;13.40;12.15;;;;;;;21.47;72.42;100682.25;5093869;28;20028;-61
2023/08/19 00:31:55;;;;;;;13.48;12.02;;;;;;;21.60;71.54;100681.69;5093978;28;20618;-61
2023/08/19 00:34:21;;;;;;;13.60;11.98;;;;;;;21.54;71.92;100680.50;5093204;28;20027;-63
2023/08/19 00:36:47;;;;;;;12.60;11.27;;;;;;;21.44;72.38;100677.97;5094429;28;20032;-60
2023/08/19 00:39:13;;;;;;;15.65;11.32;;;;;;;21.57;71.62;100676.56;5092984;28;20107;-61
2023/08/19 00:41:39;;;;;;;13.40;12.05;;;;;;;21.49;71.79;100669.28;5093912;28;20131;-61
2023/08/19 00:44:05;;;;;;;13.32;11.38;;;;;;;21.43;72.03;100672.69;5093863;28;20024;-62
2023/08/19 00:46:31;;;;;;;12.75;11.18;;;;;;;21.45;72.01;100668.78;5093613;28;20031;-62
2023/08/19 00:48:58;;;;;;;13.27;11.85;;;;;;;21.54;70.79;100668.75;5092764;28;20374;-63
2023/08/19 00:51:24;;;;;;;13.25;11.85;;;;;;;21.54;71.34;100675.06;5075947;28;20032;-62
2023/08/19 00:53:51;;;;;;;13.15;11.90;;;;;;;21.40;71.94;100684.81;5092705;28;20040;-61
2023/08/19 00:56:17;;;;;;;13.90;12.25;;;;;;;21.38;71.97;100673.22;5093164;28;20115;-61
2023/08/19 00:58:43;;;;;;;13.27;11.90;;;;;;;21.44;71.45;100672.53;5084658;28;20103;-62
2023/08/19 01:01:08;;;;;;;12.70;11.43;;;;;;;21.39;72.04;100679.50;5093597;28;20039;-62
2023/08/19 01:03:34;;;;;;;13.85;12.10;;;;;;;21.48;71.34;100659.41;5093440;28;20072;-61
2023/08/19 01:06:12;;;;;;;14.25;12.55;;;;;;;21.52;71.44;100663.50;5093398;28;20028;-61
2023/08/19 01:08:48;;;;;;;13.38;11.20;;;;;;;21.51;71.12;100661.78;5092718;28;20024;-62
2023/08/19 01:11:58;;;;;;;13.38;11.98;;;;;;;21.51;71.10;100667.25;5093393;28;20055;-58
2023/08/19 01:14:54;;;;;;;12.95;11.63;;;;;;;21.47;71.25;100663.16;5061608;28;20036;-61
2023/08/19 01:17:25;;;;;;;11.80;10.57;;;;;;;21.37;71.25;100672.38;5092650;28;20071;-61
2023/08/19 01:19:53;;;;;;;13.18;11.93;;;;;;;21.35;70.89;100682.59;5093119;28;20032;-62
2023/08/19 01:22:30;;;;;;;11.65;10.55;;;;;;;21.23;71.71;100671.22;5092534;28;20097;-62
2023/08/19 01:24:56;;;;;;;14.25;11.10;;;;;;;21.20;71.81;100676.16;5093396;28;20089;-61
2023/08/19 01:27:26;;;;;;;12.82;11.52;;;;;;;21.16;71.84;100672.06;5092308;28;20035;-62
2023/08/19 01:29:52;;;;;;;14.20;11.52;;;;;;;21.18;71.19;100664.56;5092735;28;20028;-62
2023/08/19 01:32:19;;;;;;;13.60;11.18;;;;;;;21.02;71.47;100639.09;5092718;28;20039;-61
2023/08/19 01:34:47;;;;;;;12.38;10.77;;;;;;;20.97;71.39;100641.47;5093057;28;20046;-56
2023/08/19 01:37:29;;;;;;;17.33;12.15;;;;;;;21.19;71.26;100671.72;5092641;28;20081;-61
2023/08/19 01:39:57;;;;;;;11.98;10.75;;;;;;;21.09;71.92;100685.53;5092866;28;20039;-62
2023/08/19 01:42:23;;;;;;;12.80;11.50;;;;;;;21.08;71.58;100686.53;5093339;28;20446;-61
2023/08/19 01:44:50;;;;;;;12.68;11.35;;;;;;;21.15;71.06;100686.72;5092548;28;20346;-62
2023/08/19 01:47:16;;;;;;;12.75;11.45;;;;;;;21.04;71.71;100671.59;5091794;28;20027;-59
2023/08/19 01:49:46;;;;;;;12.30;11.02;;;;;;;21.11;71.99;100685.38;5092936;28;20039;-61
2023/08/19 01:52:12;;;;;;;13.27;11.30;;;;;;;21.06;71.96;100681.28;5093120;28;20036;-61
2023/08/19 01:54:38;;;;;;;13.60;11.60;;;;;;;21.03;72.17;100676.19;5092403;28;20118;-61
2023/08/19 01:57:06;;;;;;;12.52;11.35;;;;;;;21.03;72.48;100683.50;5092115;28;20168;-62
2023/08/19 01:59:32;;;;;;;14.52;12.18;;;;;;;20.95;72.67;100668.00;5092411;28;20066;-62
2023/08/19 02:01:57;;;;;;;12.63;11.38;;;;;;;20.94;73.02;100669.03;5092354;28;20055;-63
2023/08/19 02:04:23;;;;;;;12.50;11.30;;;;;;;20.90;73.11;100678.56;5086057;28;20446;-61
2023/08/19 02:06:49;;;;;;;13.23;11.05;;;;;;;20.86;73.21;100679.94;5081097;28;20147;-59
2023/08/19 02:09:14;;;;;;;15.10;11.55;;;;;;;20.81;73.62;100674.16;5092095;28;20028;-61
2023/08/19 02:11:40;;;;;;;13.25;10.68;;;;;;;20.78;73.70;100683.47;5092201;28;20052;-61
2023/08/19 02:14:05;;;;;;;14.30;11.82;;;;;;;20.76;73.89;100686.38;5092350;28;20072;-61
2023/08/19 02:16:31;;;;;;;15.25;11.75;;;;;;;20.74;74.20;100687.56;5092040;28;20032;-62
2023/08/19 02:19:00;;;;;;;14.90;11.77;;;;;;;20.77;74.13;100687.22;5091795;28;20057;-61
2023/08/19 02:21:26;;;;;;;14.73;11.52;;;;;;;20.79;73.49;100685.19;5091954;28;20423;-61
2023/08/19 02:23:52;;;;;;;15.15;12.18;;;;;;;20.82;73.38;100684.88;5092193;28;20161;-61
2023/08/19 02:26:18;;;;;;;17.05;11.95;;;;;;;20.78;73.48;100689.78;5092175;28;20056;-59
2023/08/19 02:28:43;;;;;;;15.48;12.27;;;;;;;20.78;73.87;100692.50;5092702;28;20109;-60
2023/08/19 02:31:09;;;;;;;15.50;11.70;;;;;;;20.76;73.65;100691.81;5092232;28;20024;-62
2023/08/19 02:33:36;;;;;;;14.50;11.63;;;;;;;20.79;74.05;100696.97;5091928;28;20064;-62
2023/08/19 02:36:03;;;;;;;13.52;11.63;;;;;;;20.82;74.02;100693.03;5091896;28;20434;-61
2023/08/19 02:38:29;;;;;;;15.85;11.65;;;;;;;20.84;73.91;100693.69;5091972;28;20131;-61
2023/08/19 02:40:54;;;;;;;14.20;11.73;;;;;;;20.86;73.53;100691.69;5092082;28;20470;-62
2023/08/19 02:43:20;;;;;;;13.75;12.00;;;;;;;20.90;73.52;100684.00;5091741;28;20036;-61
2023/08/19 02:45:47;;;;;;;14.70;11.65;;;;;;;20.94;73.53;100690.81;5095108;28;20573;-62
2023/08/19 02:48:12;;;;;;;14.18;11.80;;;;;;;20.94;73.57;100688.09;5095926;28;20081;-61
2023/08/19 02:50:38;;;;;;;16.02;11.68;;;;;;;21.06;73.07;100699.47;5095224;28;20111;-61
2023/08/19 02:53:03;;;;;;;13.27;11.25;;;;;;;21.10;72.70;100698.13;5095712;28;20043;-63
2023/08/19 02:55:29;;;;;;;13.90;11.75;;;;;;;21.17;72.21;100699.16;5095839;28;20029;-62
2023/08/19 02:57:54;;;;;;;14.02;11.25;;;;;;;21.26;71.98;100696.41;5095830;28;20444;-61
2023/08/19 03:00:20;;;;;;;13.13;11.80;;;;;;;21.34;71.75;100702.69;5095436;28;20024;-59
2023/08/19 03:02:46;;;;;;;12.90;11.35;;;;;;;21.40;71.44;100703.88;5095491;28;20039;-61
2023/08/19 03:05:12;;;;;;;15.60;11.82;;;;;;;21.47;71.59;100698.59;5095206;28;20040;-61
2023/08/19 03:07:38;;;;;;;14.27;11.38;;;;;;;21.58;70.93;100697.34;5095054;28;20351;-62
2023/08/19 03:10:04;;;;;;;11.98;10.80;;;;;;;21.66;70.38;100702.81;5094844;28;20040;-62
2023/08/19 03:12:30;;;;;;;13.75;11.00;;;;;;;21.76;69.75;100702.59;5095760;28;20055;-62
2023/08/19 03:14:55;;;;;;;16.88;11.38;;;;;;;21.88;69.18;100700.34;5094662;28;20039;-62
2023/08/19 03:17:21;;;;;;;14.00;11.10;;;;;;;21.89;69.13;100702.88;5095230;28;20024;-56
2023/08/19 03:19:47;;;;;;;14.68;10.85;;;;;;;22.05;68.82;100701.13;5095745;28;20035;-62
2023/08/19 03:22:12;;;;;;;14.27;12.02;;;;;;;22.23;67.61;100701.69;5095199;28;20065;-62
2023/08/19 03:24:38;;;;;;;13.23;11.68;;;;;;;22.39;67.08;100701.78;5094993;28;20135;-62
2023/08/19 03:27:04;;;;;;;15.13;11.75;;;;;;;22.53;66.65;100708.38;5095290;28;20024;-63
2023/08/19 03:29:29;;;;;;;12.93;11.18;;;;;;;22.70;66.00;100711.81;5095559;28;20044;-62
2023/08/19 03:31:57;;;;;;;12.25;10.73;;;;;;;22.87;65.69;100709.81;5094322;28;20024;-62
2023/08/19 03:34:23;;;;;;;14.70;11.50;;;;;;;23.04;65.16;100708.63;5095149;28;20035;-59
2023/08/19 03:36:48;;;;;;;11.88;10.68;;;;;;;23.12;64.63;100702.25;5095931;28;20362;-62
2023/08/19 03:39:14;;;;;;;13.88;11.35;;;;;;;23.27;64.02;100710.50;5095329;28;20532;-62
2023/08/19 03:41:40;;;;;;;12.25;10.93;;;;;;;23.39;63.52;100710.03;5094496;28;20024;-62
2023/08/19 03:44:05;;;;;;;11.95;10.60;;;;;;;23.59;62.79;100708.44;5094893;28;20043;-61
2023/08/19 03:46:31;;;;;;;13.93;11.05;;;;;;;23.94;61.52;100706.00;5095018;28;20028;-61
2023/08/19 03:48:56;;;;;;;11.23;10.13;;;;;;;24.50;60.36;100700.97;5094556;28;20366;-61
2023/08/19 03:51:22;;;;;;;14.00;11.32;;;;;;;25.04;58.24;100715.19;5094196;28;20032;-61
2023/08/19 03:53:47;;;;;;;12.23;10.18;;;;;;;25.49;56.37;100695.72;5094720;28;20353;-61
2023/08/19 03:56:13;;;;;;;12.88;10.15;;;;;;;25.92;55.09;100690.03;5094394;28;20086;-63
2023/08/19 03:58:39;;;;;;;13.95;9.85;;;;;;;26.47;53.63;100680.94;5094393;28;20028;-61
2023/08/19 04:01:08;;;;;;;12.57;9.65;;;;;;;27.07;51.90;100696.66;5093754;28;20093;-61
2023/08/19 04:03:34;;;;;;;12.57;10.27;;;;;;;27.49;50.53;100696.38;5094667;28;20040;-61
2023/08/19 04:05:59;;;;;;;11.85;9.60;;;;;;;28.06;49.47;100697.69;5094354;28;20111;-61
2023/08/19 04:08:25;;;;;;;10.75;9.65;;;;;;;28.30;47.84;100671.31;5094515;28;20115;-61
2023/08/19 04:10:51;;;;;;;12.82;9.80;;;;;;;28.68;47.28;100699.03;5093649;28;20044;-62
2023/08/19 04:13:18;;;;;;;13.02;9.68;;;;;;;29.20;46.24;100694.19;5093574;28;20201;-61
2023/08/19 04:15:43;;;;;;;10.98;8.77;;;;;;;29.53;45.21;100686.66;5094866;28;20053;-62
2023/08/19 04:18:10;;;;;;;10.23;9.23;;;;;;;29.39;44.89;100698.88;5094765;28;20031;-63
2023/08/19 04:20:39;;;;;;;11.52;9.38;;;;;;;29.72;44.55;100703.22;5093775;28;20093;-61
2023/08/19 04:23:05;;;;;;;12.52;9.23;;;;;;;29.55;44.67;100706.59;5093625;28;20027;-62
2023/08/19 04:25:31;;;;;;;11.48;9.15;;;;;;;29.49;44.82;100704.75;5094430;28;20028;-61
2023/08/19 04:27:57;;;;;;;11.95;9.38;;;;;;;29.97;43.68;100700.34;5094526;28;20328;-62
2023/08/19 04:30:23;;;;;;;12.77;9.35;;;;;;;30.37;42.98;100699.00;5093734;28;20439;-62
2023/08/19 04:32:50;;;;;;;11.90;9.15;;;;;;;30.99;41.79;100700.63;5093702;28;20035;-60
2023/08/19 04:35:16;;;;;;;11.43;8.90;;;;;;;31.58;40.20;100694.22;5093637;28;20101;-61
2023/08/19 04:37:42;;;;;;;12.48;9.23;;;;;;;31.91;39.42;100695.53;5093954;28;20036;-61
2023/08/19 04:40:09;;;;;;;10.30;8.82;;;;;;;31.60;39.74;100694.84;5093039;28;20024;-62
2023/08/19 04:42:35;;;;;;;11.43;8.57;;;;;;;31.43;40.40;100700.28;5073528;28;20032;-61
2023/08/19 04:45:02;;;;;;;13.70;9.48;;;;;;;32.21;38.92;100697.22;5073299;28;20174;-62
2023/08/19 04:47:29;;;;;;;14.55;8.77;;;;;;;33.05;36.88;100671.81;5073534;28;20029;-62
2023/08/19 04:49:54;;;;;;;12.68;8.63;;;;;;;34.19;35.05;100696.38;5076380;28;20032;-62
2023/08/19 04:52:20;;;;;;;10.43;8.90;;;;;;;34.78;33.81;100677.22;5093478;28;20117;-62
2023/08/19 04:54:45;;;;;;;11.20;8.55;;;;;;;35.32;32.69;100689.28;5093525;28;20020;-62
2023/08/19 04:57:11;;;;;;;11.95;8.32;;;;;;;34.95;33.19;100704.88;5093555;28;20334;-61
2023/08/19 04:59:36;;;;;;;10.48;7.97;;;;;;;34.96;33.15;100680.69;5093059;28;20035;-63
2023/08/19 05:02:02;;;;;;;11.40;7.88;;;;;;;35.89;31.57;100672.88;5093256;28;20040;-61
2023/08/19 05:04:27;;;;;;;9.20;8.27;;;;;;;36.54;30.64;100705.97;5093123;28;20038;-60
2023/08/19 05:06:53;;;;;;;10.90;8.07;;;;;;;37.20;29.79;100704.25;5092508;28;20032;-61
2023/08/19 05:09:18;;;;;;;8.80;7.90;;;;;;;38.03;27.94;100706.81;5093023;28;20035;-61
2023/08/19 05:11:44;;;;;;;11.00;7.97;;;;;;;38.51;27.76;100701.78;5092996;28;20528;-62
2023/08/19 05:14:10;;;;;;;10.32;7.60;;;;;;;39.14;26.70;100695.34;5093287;28;20032;-62
2023/08/19 05:16:35;;;;;;;9.70;7.40;;;;;;;39.71;25.82;100685.50;5093375;28;20024;-61
2023/08/19 05:19:20;;;;;;;9.85;6.63;;;;;;;40.52;26.14;100689.44;5093013;28;20036;-61
2023/08/19 05:21:48;;;;;;;7.95;7.15;;;;;;;40.36;24.61;100684.06;5091542;28;20028;-62
2023/08/19 05:24:14;;;;;;;8.30;7.25;;;;;;;40.66;24.17;100689.47;5093230;28;20036;-62
2023/08/19 05:26:41;;;;;;;10.18;7.32;;;;;;;41.14;23.53;100697.63;5092935;28;20438;-62
2023/08/19 05:29:07;;;;;;;8.05;7.15;;;;;;;41.56;23.00;100686.41;5092251;28;20115;-62
2023/08/19 05:31:33;;;;;;;7.93;6.85;;;;;;;41.11;23.49;100670.13;5093057;28;20350;-61
2023/08/19 05:33:58;;;;;;;8.27;7.38;;;;;;;40.47;24.29;100688.34;5093648;28;20028;-60
2023/08/19 05:36:24;;;;;;;12.38;7.32;;;;;;;40.24;24.93;100697.66;5092086;28;20024;-62
2023/08/19 05:38:50;;;;;;;8.00;7.20;;;;;;;40.68;24.18;100695.63;5092734;28;20035;-62
2023/08/19 05:41:15;;;;;;;11.38;7.30;;;;;;;41.79;22.84;100700.56;5093273;28;20427;-62
2023/08/19 05:43:41;;;;;;;8.18;7.38;;;;;;;41.98;22.56;100679.91;5092726;28;20059;-63
2023/08/19 05:46:07;;;;;;;9.50;7.38;;;;;;;41.53;23.00;100692.66;5092666;28;20036;-63
2023/08/19 05:48:33;;;;;;;8.85;7.95;;;;;;;41.83;22.63;100686.69;5092434;28;20028;-64
2023/08/19 05:50:59;;;;;;;8.55;7.63;;;;;;;42.45;21.78;100680.53;5093345;28;20063;-63
2023/08/19 05:53:25;;;;;;;11.65;7.47;;;;;;;43.34;21.00;100678.22;5093158;28;20055;-62
2023/08/19 05:55:51;;;;;;;12.25;6.97;;;;;;;44.50;19.90;100689.34;5092471;28;20035;-61
2023/08/19 05:58:16;;;;;;;9.50;7.22;;;;;;;45.54;18.72;100678.06;5092528;28;20039;-61
2023/08/19 06:00:42;;;;;;;9.70;7.40;;;;;;;46.00;18.16;100683.91;5093132;28;20454;-62
2023/08/19 06:03:08;;;;;;;7.93;7.03;;;;;;;46.34;17.93;100673.50;5093161;28;20067;-62
2023/08/19 06:05:37;;;;;;;8.55;6.85;;;;;;;47.13;17.31;100683.97;5092290;28;20087;-62
2023/08/19 06:08:04;;;;;;;8.80;6.97;;;;;;;47.40;16.78;100683.66;5092635;28;20131;-62
2023/08/19 06:10:30;;;;;;;8.27;7.45;;;;;;;47.99;16.31;100679.44;5092024;28;20466;-62
2023/08/19 06:12:57;;;;;;;7.70;6.97;;;;;;;48.38;15.90;100681.78;5093199;28;20032;-62
2023/08/19 06:15:23;;;;;;;6.78;6.28;;;;;;;48.37;16.27;100685.00;5092370;28;20032;-62
2023/08/19 06:17:48;;;;;;;10.35;7.13;;;;;;;48.28;15.81;100677.44;5092481;28;20028;-63
2023/08/19 06:20:14;;;;;;;7.55;6.65;;;;;;;48.22;16.02;100661.88;5095887;28;20035;-62
2023/08/19 06:22:40;;;;;;;9.98;7.13;;;;;;;48.22;16.02;100686.56;5097294;28;20107;-64
2023/08/19 06:25:06;;;;;;;8.57;7.03;;;;;;;48.26;15.93;100685.50;5096383;28;20055;-63
2023/08/19 06:27:31;;;;;;;8.27;7.45;;;;;;;49.17;15.17;100682.28;5096347;28;20127;-60
2023/08/19 06:29:57;;;;;;;9.40;7.35;;;;;;;49.78;14.74;100682.91;5097082;28;20187;-63
2023/08/19 06:32:23;;;;;;;10.07;6.93;;;;;;;50.39;14.29;100680.53;5096805;28;20076;-63
2023/08/19 06:34:48;;;;;;;9.27;6.95;;;;;;;50.37;14.06;100685.81;5096240;28;20145;-62
2023/08/19 06:37:20;;;;;;;9.93;7.15;;;;;;;50.07;14.84;100689.25;5096244;28;20094;-63
2023/08/19 06:39:52;;;;;;;9.25;7.65;;;;;;;49.40;14.75;100692.97;5096117;28;20362;-62
2023/08/19 06:42:18;;;;;;;9.32;7.28;;;;;;;48.67;15.60;100691.09;5095790;28;20504;-63
2023/08/19 06:44:48;;;;;;;11.10;7.57;;;;;;;47.54;16.54;100692.63;5096095;28;20331;-63
2023/08/19 06:47:20;;;;;;;9.95;7.20;;;;;;;45.78;18.17;100685.91;5095941;28;20028;-63
2023/08/19 06:49:46;;;;;;;10.30;7.03;;;;;;;44.57;19.54;100684.88;5096421;28;20035;-63
2023/08/19 06:52:12;;;;;;;8.75;7.28;;;;;;;43.11;21.08;100681.09;5095494;28;20028;-66
2023/08/19 06:54:38;;;;;;;9.35;7.03;;;;;;;43.13;21.30;100679.63;5095693;28;20047;-66
2023/08/19 06:57:06;;;;;;;8.90;8.00;;;;;;;43.38;20.44;100684.84;5096196;28;20020;-69
2023/08/19 06:59:36;;;;;;;9.50;8.60;;;;;;;42.10;21.88;100688.66;5095919;28;20366;-66
2023/08/19 07:02:04;;;;;;;9.85;8.20;;;;;;;42.72;21.28;100686.31;5095990;28;20115;-65
2023/08/19 07:04:30;;;;;;;10.52;7.50;;;;;;;45.09;19.27;100685.06;5096136;28;20028;-67
2023/08/19 07:07:01;;;;;;;10.43;7.68;;;;;;;47.47;17.32;100698.06;5095060;28;20028;-66
2023/08/19 07:09:27;;;;;;;17.50;8.00;;;;;;;47.89;16.66;100696.13;5095406;28;20438;-66
2023/08/19 07:11:55;;;;;;;8.23;7.43;;;;;;;48.11;16.29;100689.94;5095330;28;20051;-65
2023/08/19 07:14:22;;;;;;;10.75;7.10;;;;;;;48.12;16.66;100694.44;5094996;28;20336;-65
2023/08/19 07:16:49;;;;;;;10.02;7.18;;;;;;;48.03;16.55;100696.59;5094307;28;20110;-66
2023/08/19 07:19:20;;;;;;;12.30;7.35;;;;;;;47.97;16.50;100689.47;5095899;28;20035;-66
2023/08/19 07:21:46;;;;;;;8.02;7.30;;;;;;;47.84;16.65;100692.38;5095177;28;20035;-68
2023/08/19 07:24:13;;;;;;;11.05;7.43;;;;;;;47.87;16.45;100682.28;5094779;28;20028;-66
2023/08/19 07:26:39;;;;;;;9.40;7.80;;;;;;;48.35;15.88;100681.66;5095228;28;20043;-67
2023/08/19 07:29:05;;;;;;;10.55;7.85;;;;;;;49.41;15.07;100678.41;5095599;28;20032;-67
2023/08/19 07:31:31;;;;;;;9.73;7.53;;;;;;;49.75;14.25;100666.59;5075544;28;20031;-66
2023/08/19 07:33:58;;;;;;;9.07;7.10;;;;;;;50.31;14.22;100681.63;5094332;28;20031;-64
2023/08/19 07:36:24;;;;;;;9.80;7.95;;;;;;;51.16;13.58;100685.63;5095468;28;20339;-65
2023/08/19 07:38:49;;;;;;;10.32;7.72;;;;;;;51.28;13.59;100684.59;5095706;28;20035;-65
2023/08/19 07:41:18;;;;;;;9.00;7.57;;;;;;;49.46;14.88;100687.84;5061225;28;20032;-65
2023/08/19 07:43:43;;;;;;;8.05;7.25;;;;;;;47.66;16.50;100686.16;5095016;28;20458;-65
2023/08/19 07:46:09;;;;;;;10.25;7.47;;;;;;;46.80;17.22;100684.03;5094834;28;20032;-64
2023/08/19 07:48:35;;;;;;;9.48;6.95;;;;;;;46.96;16.86;100685.03;5095416;28;20048;-67
2023/08/19 07:51:00;;;;;;;7.22;6.55;;;;;;;46.12;17.13;100684.03;5094772;28;20119;-67
2023/08/19 07:53:26;;;;;;;9.38;6.93;;;;;;;44.05;19.03;100677.22;5094694;28;20135;-64
2023/08/19 07:55:51;;;;;;;8.13;6.55;;;;;;;43.19;20.44;100677.50;5095060;28;20036;-63
2023/08/19 07:58:17;;;;;;;9.50;6.53;;;;;;;42.17;21.32;100669.34;5094964;28;20435;-65
2023/08/19 08:00:42;;;;;;;7.60;6.82;;;;;;;42.41;21.45;100676.63;5094494;28;20032;-65
2023/08/19 08:03:08;;;;;;;8.30;6.65;;;;;;;43.64;20.19;100672.81;5094593;28;20039;-64
2023/08/19 08:05:34;;;;;;;7.22;6.53;;;;;;;43.49;20.03;100669.31;5094932;28;20462;-64
2023/08/19 08:07:59;;;;;;;10.57;6.90;;;;;;;42.72;20.32;100664.63;5077296;28;20347;-65
2023/08/19 08:10:25;;;;;;;7.85;7.15;;;;;;;40.75;22.24;100663.19;5076375;28;20036;-65
2023/08/19 08:12:51;;;;;;;7.47;6.63;;;;;;;38.85;24.63;100658.97;5094327;28;20040;-65
2023/08/19 08:15:16;;;;;;;6.85;6.25;;;;;;;37.22;26.65;100650.94;5094689;28;20039;-64
2023/08/19 08:17:42;;;;;;;8.02;7.30;;;;;;;36.18;27.98;100650.97;5094695;28;20075;-63
2023/08/19 08:20:08;;;;;;;7.47;6.90;;;;;;;35.43;28.92;100654.00;5094138;28;20377;-64
2023/08/19 08:22:33;;;;;;;13.25;9.73;;;;;;;34.82;29.51;100658.06;5094395;28;20043;-64
2023/08/19 08:25:01;;;;;;;8.70;7.88;;;;;;;34.21;30.45;100660.81;5093600;28;20028;-63
2023/08/19 08:27:26;;;;;;;9.23;7.35;;;;;;;33.87;30.68;100652.66;5093702;28;20028;-60
2023/08/19 08:29:52;;;;;;;10.85;7.68;;;;;;;33.87;31.40;100652.66;5093192;28;20031;-62
2023/08/19 08:32:17;;;;;;;11.68;7.75;;;;;;;33.87;31.90;100658.22;5093343;28;20024;-63
2023/08/19 08:34:43;;;;;;;9.20;7.72;;;;;;;33.92;32.18;100652.72;5081776;28;20382;-62
2023/08/19 08:37:09;;;;;;;10.95;7.85;;;;;;;33.94;32.81;100652.47;5093121;28;20100;-60
2023/08/19 08:39:34;;;;;;;9.30;8.40;;;;;;;33.58;32.80;100622.34;5093681;28;20031;-58
2023/08/19 08:42:01;;;;;;;9.45;8.32;;;;;;;33.55;33.30;100645.06;5093499;28;20136;-67
2023/08/19 08:44:27;;;;;;;9.20;8.30;;;;;;;33.34;33.07;100644.78;5092302;28;20119;-60
2023/08/19 08:46:55;;;;;;;10.70;7.90;;;;;;;33.14;33.27;100639.75;5091237;28;20473;-59
2023/08/19 08:49:24;;;;;;;8.75;7.95;;;;;;;32.79;33.04;100599.28;5082948;28;20562;-61
2023/08/19 08:51:51;;;;;;;8.05;7.18;;;;;;;33.05;32.17;100631.06;5093847;28;20523;-62
2023/08/19 08:54:20;;;;;;;9.18;7.20;;;;;;;33.28;32.24;100633.84;5093094;28;20032;-61
2023/08/19 08:56:45;;;;;;;8.20;7.40;;;;;;;32.99;32.73;100575.75;5074849;28;20394;-61
2023/08/19 08:59:11;;;;;;;11.13;7.95;;;;;;;33.40;32.82;100636.50;5073071;28;20024;-60
2023/08/19 09:01:37;;;;;;;12.43;8.90;;;;;;;33.38;32.67;100627.59;5092918;28;20020;-62
2023/08/19 09:04:08;;;;;;;10.18;8.32;;;;;;;33.54;32.23;100623.97;5092934;28;20036;-61
2023/08/19 09:06:38;;;;;;;8.57;7.60;;;;;;;33.72;31.79;100633.88;5073293;28;20405;-61
2023/08/19 09:09:08;;;;;;;9.50;8.60;;;;;;;33.72;32.09;100627.47;5092993;28;20421;-61
2023/08/19 09:11:38;;;;;;;12.77;8.88;;;;;;;33.54;32.48;100623.09;5092496;28;20043;-61
2023/08/19 09:14:17;;;;;;;9.82;8.68;;;;;;;33.46;32.55;100629.94;5092948;28;20039;-62
2023/08/19 09:16:43;;;;;;;8.93;7.97;;;;;;;33.07;32.17;100634.41;5093296;28;20028;-62
2023/08/19 09:19:09;;;;;;;9.25;8.23;;;;;;;32.65;32.51;100599.63;5092681;28;20105;-59
2023/08/19 09:21:34;;;;;;;9.18;8.27;;;;;;;32.54;33.60;100608.88;5092581;28;20438;-61
2023/08/19 09:24:00;;;;;;;10.43;8.23;;;;;;;32.44;32.62;100620.63;5092810;28;20460;-61
2023/08/19 09:26:26;;;;;;;9.57;7.60;;;;;;;32.35;33.46;100625.75;5092447;28;20392;-62
2023/08/19 09:29:00;;;;;;;9.32;8.32;;;;;;;32.25;32.79;100625.53;5092389;28;20063;-62
2023/08/19 09:31:26;;;;;;;9.88;7.53;;;;;;;32.02;33.49;100615.41;5088922;28;20051;-60
2023/08/19 09:33:55;;;;;;;10.85;8.05;;;;;;;31.90;33.93;100618.22;5080231;28;20141;-61
2023/08/19 09:36:24;;;;;;;14.20;8.65;;;;;;;31.87;33.98;100605.75;5089511;28;20353;-61
2023/08/19 09:38:56;;;;;;;10.93;7.95;;;;;;;32.01;34.24;100617.34;5077396;28;20085;-60
2023/08/19 09:41:30;;;;;;;11.05;7.97;;;;;;;32.23;33.76;100608.34;5081659;28;20032;-63
2023/08/19 09:43:59;;;;;;;11.02;7.47;;;;;;;32.46;32.75;100617.63;5089494;28;20055;-60
2023/08/19 09:46:32;;;;;;;9.40;8.50;;;;;;;32.74;33.14;100611.13;5086539;28;20047;-60
2023/08/19 09:48:58;;;;;;;9.13;8.15;;;;;;;32.54;32.40;100585.84;5089624;28;20446;-58
2023/08/19 09:51:25;;;;;;;8.98;8.05;;;;;;;32.55;32.09;100606.94;5083405;28;20442;-59
2023/08/19 09:53:51;;;;;;;8.10;7.50;;;;;;;32.43;32.44;100595.94;5079275;28;20025;-62
2023/08/19 09:56:22;;;;;;;10.00;8.00;;;;;;;32.47;32.43;100609.03;5081733;28;20039;-63
2023/08/19 09:58:50;;;;;;;8.63;7.90;;;;;;;32.47;33.28;100614.56;5087650;28;20077;-63
2023/08/19 10:01:16;;;;;;;13.18;8.07;;;;;;;32.54;33.01;100608.03;5086561;28;20024;-60
2023/08/19 10:03:42;;;;;;;10.20;7.78;;;;;;;32.62;32.55;100615.94;5082475;28;20039;-61
2023/08/19 10:06:10;;;;;;;9.63;7.40;;;;;;;32.40;32.06;100611.13;5088356;28;20457;-61
2023/08/19 10:08:41;;;;;;;7.85;6.97;;;;;;;32.26;33.09;100606.97;5090713;28;20399;-62
2023/08/19 10:11:07;;;;;;;7.90;6.90;;;;;;;32.00;32.25;100612.03;5088850;28;20127;-70
2023/08/19 10:13:34;;;;;;;8.32;7.53;;;;;;;31.70;32.19;100616.69;5079085;28;20077;-69
2023/08/19 10:16:04;;;;;;;7.80;6.90;;;;;;;31.38;32.66;100605.28;5090981;28;20346;-67
2023/08/19 10:18:32;;;;;;;10.40;7.35;;;;;;;31.20;33.18;100607.94;5080092;28;20044;-68
2023/08/19 10:21:01;;;;;;;8.55;7.57;;;;;;;31.11;33.49;100620.41;5076711;28;20115;-66
2023/08/19 10:23:28;;;;;;;8.68;7.80;;;;;;;31.02;34.69;100617.19;5085401;28;20033;-69
2023/08/19 10:25:54;;;;;;;11.65;7.55;;;;;;;30.86;34.72;100604.94;5089227;28;20035;-67
2023/08/19 10:28:25;;;;;;;10.18;7.05;;;;;;;30.88;35.29;100608.28;5084028;28;20039;-65
2023/08/19 10:31:12;;;;;;;8.15;7.38;;;;;;;30.98;35.16;100604.91;5077656;28;20366;-66
2023/08/19 10:33:48;;;;;;;9.75;8.02;;;;;;;31.02;35.01;100605.28;5072891;28;20025;-66
2023/08/19 10:36:16;;;;;;;11.10;7.78;;;;;;;30.97;34.47;100597.72;5091661;28;20061;-67
2023/08/19 10:39:08;;;;;;;8.18;7.35;;;;;;;31.15;34.25;100595.91;5092229;28;20043;-65
2023/08/19 10:41:38;;;;;;;12.07;8.52;;;;;;;31.41;34.26;100599.25;5076017;28;20082;-64
2023/08/19 10:44:06;;;;;;;9.23;8.32;;;;;;;31.55;33.62;100581.25;5090368;28;20024;-61
2023/08/19 10:46:37;;;;;;;9.60;7.78;;;;;;;31.73;33.67;100576.63;5081152;28;20036;-62
2023/08/19 10:49:04;;;;;;;11.45;7.85;;;;;;;31.80;33.14;100585.66;5089942;28;20020;-61
2023/08/19 10:52:14;;;;;;;8.90;8.05;;;;;;;32.10;32.33;100584.56;5091913;28;20118;-62
2023/08/19 10:54:43;;;;;;;9.90;7.32;;;;;;;32.03;32.47;100576.41;5091988;28;20451;-62
2023/08/19 10:57:17;;;;;;;9.00;7.95;;;;;;;31.98;32.64;100579.09;5092105;28;20036;-61
2023/08/19 10:59:45;;;;;;;10.77;7.80;;;;;;;31.97;32.37;100576.56;5092436;28;20024;-63
2023/08/19 11:02:12;;;;;;;9.00;7.75;;;;;;;31.97;32.99;100574.63;5092696;28;20427;-62
2023/08/19 11:04:47;;;;;;;9.93;7.57;;;;;;;32.10;33.04;100570.72;5074860;28;20366;-63
2023/08/19 11:07:12;;;;;;;11.38;7.88;;;;;;;32.05;33.29;100565.91;5094359;28;20063;-61
2023/08/19 11:09:43;;;;;;;12.73;7.93;;;;;;;32.06;33.09;100569.50;5093965;28;20055;-62
2023/08/19 11:12:10;;;;;;;9.95;8.02;;;;;;;31.79;33.18;100561.81;5095821;28;20156;-63
2023/08/19 11:14:37;;;;;;;8.38;7.57;;;;;;;31.49;34.03;100549.91;5093876;28;20067;-63
2023/08/19 11:17:03;;;;;;;8.80;8.05;;;;;;;31.20;34.19;100551.78;5075376;28;20119;-62